createdAt,value
2023-04-01T00:01:23.859Z,10.38
2023-04-01T00:03:50.919Z,10.31
2023-04-01T00:06:17.555Z,10.36
2023-04-01T00:08:44.214Z,10.44
2023-04-01T00:11:10.650Z,10.35
2023-04-01T00:13:37.112Z,10.23
2023-04-01T00:16:09.734Z,10.23
2023-04-01T00:18:44.238Z,10.25
2023-04-01T00:21:10.892Z,10.21
2023-04-01T00:23:37.376Z,10.30
2023-04-01T00:26:03.902Z,10.29
2023-04-01T00:28:30.328Z,10.29
2023-04-01T00:30:56.756Z,10.39
2023-04-01T00:33:23.163Z,10.31
2023-04-01T00:35:49.800Z,10.28
2023-04-01T00:38:18.075Z,10.33
2023-04-01T00:40:44.518Z,10.35
2023-04-01T00:43:11.133Z,10.33
2023-04-01T00:45:37.669Z,10.29
2023-04-01T00:48:04.201Z,10.25
2023-04-01T00:50:31.017Z,10.29
2023-04-01T00:52:57.443Z,10.23
2023-04-01T00:55:23.929Z,10.22
2023-04-01T00:57:50.358Z,10.15
2023-04-01T01:00:17.044Z,10.13
2023-04-01T01:02:43.534Z,10.19
2023-04-01T01:05:09.982Z,10.12
2023-04-01T01:07:36.414Z,10.14
2023-04-01T01:10:02.926Z,10.15
2023-04-01T01:12:29.355Z,10.07
2023-04-01T01:14:55.887Z,10.18
2023-04-01T01:17:22.394Z,10.25
2023-04-01T01:19:49.532Z,10.14
2023-04-01T01:22:16.216Z,10.27
2023-04-01T01:24:42.666Z,10.24
2023-04-01T01:27:09.086Z,10.24
2023-04-01T01:29:35.708Z,10.30
2023-04-01T01:32:02.365Z,10.27
2023-04-01T01:34:28.788Z,10.32
2023-04-01T01:36:55.206Z,10.35
2023-04-01T01:39:22.063Z,10.36
2023-04-01T01:41:50.543Z,10.34
2023-04-01T01:44:16.974Z,10.25
2023-04-01T01:46:43.515Z,10.29
2023-04-01T01:49:09.954Z,10.20
2023-04-01T01:51:36.413Z,10.17
2023-04-01T01:54:02.825Z,10.21
2023-04-01T01:56:29.257Z,10.25
2023-04-01T01:58:55.678Z,10.17
2023-04-01T02:01:22.122Z,10.22
2023-04-01T02:03:48.594Z,10.23
2023-04-01T02:06:15.038Z,10.23
2023-04-01T02:08:41.568Z,10.22
2023-04-01T02:11:08.020Z,10.21
2023-04-01T02:13:34.488Z,10.24
2023-04-01T02:16:01.427Z,10.18
2023-04-01T02:18:27.857Z,10.25
2023-04-01T02:20:54.508Z,10.18
2023-04-01T02:23:21.150Z,10.23
2023-04-01T02:25:47.572Z,10.34
2023-04-01T02:28:14.108Z,10.21
2023-04-01T02:30:41.308Z,10.20
2023-04-01T02:33:07.771Z,10.23
2023-04-01T02:35:34.345Z,10.35
2023-04-01T02:38:00.903Z,10.30
2023-04-01T02:40:27.336Z,10.24
2023-04-01T02:42:53.794Z,10.24
2023-04-01T02:45:20.254Z,10.28
2023-04-01T02:47:46.757Z,10.22
2023-04-01T02:50:13.220Z,10.22
2023-04-01T02:52:39.698Z,10.23
2023-04-01T02:55:06.226Z,10.24
2023-04-01T02:57:32.732Z,10.30
2023-04-01T02:59:59.228Z,10.20
2023-04-01T03:02:25.818Z,10.21
2023-04-01T03:04:52.308Z,10.27
2023-04-01T03:07:18.750Z,10.25
2023-04-01T03:09:45.152Z,10.14
2023-04-01T03:12:11.602Z,10.19
2023-04-01T03:14:38.016Z,10.20
2023-04-01T03:17:04.429Z,10.21
2023-04-01T03:19:31.032Z,10.17
2023-04-01T03:21:57.478Z,10.24
2023-04-01T03:24:23.930Z,10.17
2023-04-01T03:26:50.439Z,10.20
2023-04-01T03:29:17.059Z,10.26
2023-04-01T03:31:43.525Z,10.24
2023-04-01T03:34:10.098Z,10.27
2023-04-01T03:36:36.549Z,10.05
2023-04-01T03:39:04.264Z,10.07
2023-04-01T03:41:31.934Z,10.15
2023-04-01T03:43:58.462Z,10.12
2023-04-01T03:46:24.976Z,10.12
2023-04-01T03:48:51.504Z,10.13
2023-04-01T03:51:17.957Z,10.11
2023-04-01T03:53:44.383Z,10.12
2023-04-01T03:56:10.868Z,10.12
2023-04-01T03:58:37.277Z,10.16
2023-04-01T04:01:03.722Z,10.27
2023-04-01T04:03:30.273Z,10.14
2023-04-01T04:05:57.629Z,10.16
2023-04-01T04:08:24.094Z,10.24
2023-04-01T04:10:50.715Z,10.19
2023-04-01T04:13:17.211Z,10.22
2023-04-01T04:15:43.651Z,10.21
2023-04-01T04:18:10.134Z,10.29
2023-04-01T04:20:36.911Z,10.23
2023-04-01T04:23:03.383Z,10.24
2023-04-01T04:25:29.799Z,10.20
2023-04-01T04:27:56.261Z,10.27
2023-04-01T04:30:22.693Z,10.30
2023-04-01T04:32:49.153Z,10.19
2023-04-01T04:35:15.775Z,10.21
2023-04-01T04:37:42.226Z,10.28
2023-04-01T04:40:08.656Z,10.27
2023-04-01T04:42:35.086Z,10.25
2023-04-01T04:45:01.506Z,10.25
2023-04-01T04:47:28.023Z,10.34
2023-04-01T04:49:54.458Z,10.33
2023-04-01T04:52:20.880Z,10.27
2023-04-01T04:54:47.322Z,10.31
2023-04-01T04:57:13.794Z,10.35
2023-04-01T04:59:40.264Z,10.36
2023-04-01T05:02:06.699Z,10.31
2023-04-01T05:04:33.136Z,10.31
2023-04-01T05:06:59.545Z,10.21
2023-04-01T05:09:25.988Z,10.21
2023-04-01T05:11:52.434Z,10.32
2023-04-01T05:14:18.846Z,10.23
2023-04-01T05:16:45.359Z,10.23
2023-04-01T05:19:11.883Z,10.40
2023-04-01T05:21:38.334Z,10.36
2023-04-01T05:24:04.740Z,10.26
2023-04-01T05:26:31.817Z,10.38
2023-04-01T05:28:58.224Z,10.39
2023-04-01T05:31:25.356Z,10.32
2023-04-01T05:33:51.838Z,10.36
2023-04-01T05:36:18.296Z,10.44
2023-04-01T05:38:47.023Z,10.28
2023-04-01T05:41:13.466Z,10.33
2023-04-01T05:43:39.938Z,10.31
2023-04-01T05:46:06.461Z,10.33
2023-04-01T05:48:32.951Z,10.52
2023-04-01T05:50:59.368Z,10.47
2023-04-01T05:53:25.918Z,10.56
2023-04-01T05:55:52.341Z,10.51
2023-04-01T05:58:18.811Z,10.57
2023-04-01T06:00:46.519Z,10.58
2023-04-01T06:03:13.231Z,10.42
2023-04-01T06:05:39.732Z,10.48
2023-04-01T06:08:06.145Z,10.50
2023-04-01T06:10:32.562Z,10.42
2023-04-01T06:12:59.004Z,10.56
2023-04-01T06:15:25.471Z,10.63
2023-04-01T06:17:51.928Z,10.66
2023-04-01T06:20:19.191Z,10.52
2023-04-01T06:22:45.736Z,10.36
2023-04-01T06:25:12.208Z,10.52
2023-04-01T06:27:38.668Z,10.57
2023-04-01T06:30:05.354Z,10.53
2023-04-01T06:32:31.855Z,10.64
2023-04-01T06:34:58.285Z,10.61
2023-04-01T06:37:24.724Z,10.74
2023-04-01T06:39:51.535Z,10.91
2023-04-01T06:42:18.011Z,10.97
2023-04-01T06:44:44.461Z,11.02
2023-04-01T06:47:11.051Z,10.98
2023-04-01T06:49:37.535Z,10.99
2023-04-01T06:52:03.950Z,11.00
2023-04-01T06:54:30.396Z,11.10
2023-04-01T06:56:58.511Z,11.21
2023-04-01T06:59:24.947Z,11.00
2023-04-01T07:01:51.434Z,11.20
2023-04-01T07:04:17.889Z,11.23
2023-04-01T07:06:44.311Z,11.10
2023-04-01T07:09:10.728Z,11.13
2023-04-01T07:11:37.199Z,11.28
2023-04-01T07:14:03.666Z,11.22
2023-04-01T07:16:30.608Z,11.37
2023-04-01T07:18:57.054Z,11.38
2023-04-01T07:21:23.481Z,11.37
2023-04-01T07:23:49.908Z,11.49
2023-04-01T07:26:16.501Z,11.44
2023-04-01T07:28:43.818Z,11.31
2023-04-01T07:31:10.331Z,11.19
2023-04-01T07:33:36.803Z,11.34
2023-04-01T07:36:03.275Z,11.29
2023-04-01T07:38:29.798Z,11.32
2023-04-01T07:40:56.281Z,11.33
2023-04-01T07:43:22.743Z,11.43
2023-04-01T07:45:49.152Z,11.53
2023-04-01T07:48:15.566Z,11.43
2023-04-01T07:50:42.005Z,11.44
2023-04-01T07:53:08.514Z,11.42
2023-04-01T07:55:35.179Z,11.75
2023-04-01T07:58:01.820Z,11.37
2023-04-01T08:00:28.225Z,11.41
2023-04-01T08:02:54.699Z,11.51
2023-04-01T08:05:21.472Z,11.50
2023-04-01T08:07:47.998Z,11.52
2023-04-01T08:10:14.423Z,11.57
2023-04-01T08:12:40.914Z,11.53
2023-04-01T08:15:07.349Z,11.69
2023-04-01T08:17:33.850Z,11.70
2023-04-01T08:20:00.313Z,12.14
2023-04-01T08:22:26.739Z,12.10
2023-04-01T08:24:53.185Z,12.20
2023-04-01T08:27:19.603Z,12.50
2023-04-01T08:29:46.723Z,12.73
2023-04-01T08:32:13.349Z,12.21
2023-04-01T08:34:39.898Z,12.54
2023-04-01T08:37:06.408Z,12.89
2023-04-01T08:39:32.878Z,12.45
2023-04-01T08:48:09.850Z,12.49
2023-04-01T08:50:36.408Z,12.46
2023-04-01T08:53:04.863Z,12.63
2023-04-01T08:55:31.599Z,12.74
2023-04-01T08:57:58.322Z,12.66
2023-04-01T09:00:24.747Z,12.30
2023-04-01T09:02:51.410Z,12.49
2023-04-01T09:05:17.980Z,12.46
2023-04-01T09:07:44.524Z,12.50
2023-04-01T09:10:11.141Z,12.46
2023-04-01T09:12:38.812Z,12.48
2023-04-01T09:15:05.631Z,12.30
2023-04-01T09:17:32.181Z,12.42
2023-04-01T09:19:58.650Z,12.29
2023-04-01T09:22:25.079Z,12.48
2023-04-01T09:24:51.562Z,12.14
2023-04-01T09:27:17.988Z,12.24
2023-04-01T09:29:44.396Z,12.29
2023-04-01T09:32:10.937Z,12.60
2023-04-01T09:34:37.527Z,12.29
2023-04-01T09:37:03.935Z,12.32
2023-04-01T09:39:30.346Z,12.41
2023-04-01T09:41:56.789Z,12.39
2023-04-01T09:44:23.223Z,12.25
2023-04-01T09:46:49.763Z,12.56
2023-04-01T09:49:16.409Z,12.75
2023-04-01T09:51:42.849Z,12.63
2023-04-01T09:54:09.511Z,12.93
2023-04-01T09:56:35.978Z,12.63
2023-04-01T09:59:02.429Z,12.71
2023-04-01T10:01:29.152Z,12.77
2023-04-01T10:03:55.832Z,12.69
2023-04-01T10:06:22.259Z,12.55
2023-04-01T10:08:53.254Z,12.81
2023-04-01T10:11:19.760Z,12.53
2023-04-01T10:13:46.688Z,12.63
2023-04-01T10:16:13.199Z,12.72
2023-04-01T10:18:39.634Z,12.73
2023-04-01T10:21:06.929Z,13.02
2023-04-01T10:23:33.354Z,12.70
2023-04-01T10:25:59.792Z,12.84
2023-04-01T10:28:26.231Z,12.62
2023-04-01T10:30:52.655Z,12.92
2023-04-01T10:33:19.135Z,12.73
2023-04-01T10:35:45.663Z,12.84
2023-04-01T10:38:12.132Z,12.57
2023-04-01T10:40:38.578Z,12.70
2023-04-01T10:43:05.000Z,12.61
2023-04-01T10:45:31.620Z,12.88
2023-04-01T10:47:58.343Z,12.65
2023-04-01T10:50:24.899Z,12.57
2023-04-01T10:52:51.361Z,12.56
2023-04-01T10:55:17.819Z,12.41
2023-04-01T10:57:44.437Z,12.83
2023-04-01T11:00:10.957Z,12.97
2023-04-01T11:02:37.514Z,12.93
2023-04-01T11:05:03.970Z,13.03
2023-04-01T11:07:30.482Z,13.11
2023-04-01T11:09:56.963Z,13.11
2023-04-01T11:12:23.408Z,13.22
2023-04-01T11:14:49.880Z,13.67
2023-04-01T11:17:16.302Z,13.97
2023-04-01T11:19:42.852Z,13.74
2023-04-01T11:22:10.760Z,14.11
2023-04-01T11:24:37.248Z,14.27
2023-04-01T11:27:03.730Z,14.32
2023-04-01T11:29:30.420Z,13.92
2023-04-01T11:31:56.862Z,13.64
2023-04-01T11:34:23.308Z,13.41
2023-04-01T11:36:49.729Z,13.65
2023-04-01T11:39:21.777Z,14.25
2023-04-01T11:41:48.253Z,14.12
2023-04-01T11:44:14.713Z,14.29
2023-04-01T11:46:42.716Z,14.11
2023-04-01T11:49:09.302Z,13.99
2023-04-01T11:51:35.824Z,13.64
2023-04-01T11:54:02.297Z,13.71
2023-04-01T11:56:28.718Z,13.15
2023-04-01T11:58:55.171Z,12.94
2023-04-01T12:01:21.614Z,12.96
2023-04-01T12:03:48.153Z,13.00
2023-04-01T12:06:14.747Z,13.51
2023-04-01T12:08:41.154Z,13.91
2023-04-01T12:11:07.641Z,14.28
2023-04-01T12:13:34.109Z,14.39
2023-04-01T12:16:00.544Z,14.28
2023-04-01T12:18:27.024Z,14.63
2023-04-01T12:20:54.437Z,14.69
2023-04-01T12:23:20.915Z,14.69
2023-04-01T12:25:47.325Z,14.24
2023-04-01T12:28:13.769Z,14.02
2023-04-01T12:30:40.242Z,13.82
2023-04-01T12:33:08.553Z,13.83
2023-04-01T12:35:35.290Z,14.03
2023-04-01T12:38:02.029Z,13.39
2023-04-01T12:40:29.684Z,13.30
2023-04-01T12:42:56.161Z,13.13
2023-04-01T12:45:22.617Z,13.31
2023-04-01T12:47:49.064Z,12.92
2023-04-01T12:50:15.886Z,12.99
2023-04-01T12:52:42.316Z,13.01
2023-04-01T12:55:09.096Z,13.43
2023-04-01T12:57:35.606Z,13.61
2023-04-01T13:00:02.070Z,13.24
2023-04-01T13:02:28.547Z,13.56
2023-04-01T13:04:54.973Z,13.58
2023-04-01T13:07:21.432Z,13.79
2023-04-01T13:09:52.029Z,13.77
2023-04-01T13:12:18.866Z,13.87
2023-04-01T13:14:45.418Z,14.03
2023-04-01T13:17:11.833Z,14.28
2023-04-01T13:19:38.333Z,14.63
2023-04-01T13:22:04.820Z,14.48
2023-04-01T13:24:31.375Z,14.38
2023-04-01T13:26:57.821Z,14.33
2023-04-01T13:29:24.330Z,14.28
2023-04-01T13:31:51.123Z,14.40
2023-04-01T13:34:17.548Z,13.99
2023-04-01T13:36:44.028Z,14.12
2023-04-01T13:39:10.442Z,14.17
2023-04-01T13:41:36.907Z,14.12
2023-04-01T13:44:03.337Z,14.41
2023-04-01T13:46:29.839Z,14.52
2023-04-01T13:48:56.371Z,14.12
2023-04-01T13:51:22.883Z,14.24
2023-04-01T13:53:49.340Z,14.29
2023-04-01T13:56:15.798Z,14.26
2023-04-01T13:58:42.223Z,14.46
2023-04-01T14:01:09.039Z,14.72
2023-04-01T14:03:35.935Z,15.03
2023-04-01T14:06:02.437Z,14.55
2023-04-01T14:08:28.952Z,14.69
2023-04-01T14:10:55.418Z,14.30
2023-04-01T14:13:21.865Z,14.39
2023-04-01T14:15:48.337Z,14.18
2023-04-01T14:18:14.748Z,14.17
2023-04-01T14:20:44.228Z,13.83
2023-04-01T14:23:10.638Z,13.70
2023-04-01T14:25:37.727Z,13.95
2023-04-01T14:28:04.496Z,14.07
2023-04-01T14:30:31.053Z,14.15
2023-04-01T14:32:57.542Z,14.44
2023-04-01T14:35:24.091Z,14.46
2023-04-01T14:37:50.701Z,14.19
2023-04-01T14:40:17.104Z,14.22
2023-04-01T14:42:43.512Z,13.96
2023-04-01T14:45:09.992Z,13.93
2023-04-01T14:47:36.515Z,14.19
2023-04-01T14:50:03.651Z,14.13
2023-04-01T14:52:30.465Z,14.13
2023-04-01T14:54:56.888Z,13.78
2023-04-01T14:57:27.904Z,13.89
2023-04-01T14:59:54.398Z,13.69
2023-04-01T15:02:20.896Z,13.67
2023-04-01T15:04:47.375Z,14.08
2023-04-01T15:07:13.832Z,14.04
2023-04-01T15:09:40.309Z,13.98
2023-04-01T15:12:06.750Z,13.88
2023-04-01T15:14:33.252Z,13.76
2023-04-01T15:16:59.660Z,13.67
2023-04-01T15:19:26.302Z,13.56
2023-04-01T15:21:53.690Z,13.63
2023-04-01T15:24:20.157Z,13.54
2023-04-01T15:26:46.580Z,13.40
2023-04-01T15:29:13.127Z,13.30
2023-04-01T15:31:39.619Z,13.41
2023-04-01T15:34:06.626Z,13.65
2023-04-01T15:36:33.096Z,13.42
2023-04-01T15:38:59.519Z,13.42
2023-04-01T15:41:26.018Z,13.29
2023-04-01T15:43:55.641Z,13.43
2023-04-01T15:46:22.092Z,13.18
2023-04-01T15:48:48.670Z,13.35
2023-04-01T15:51:15.102Z,13.14
2023-04-01T15:53:41.519Z,13.24
2023-04-01T15:56:07.944Z,13.25
2023-04-01T15:58:34.360Z,13.20
2023-04-01T16:01:00.878Z,13.01
2023-04-01T16:03:27.591Z,13.17
2023-04-01T16:05:54.133Z,12.86
2023-04-01T16:08:20.778Z,12.79
2023-04-01T16:10:48.400Z,12.56
2023-04-01T16:13:14.870Z,12.67
2023-04-01T16:15:41.691Z,12.63
2023-04-01T16:18:08.139Z,12.95
2023-04-01T16:20:34.679Z,12.93
2023-04-01T16:23:01.588Z,13.02
2023-04-01T16:25:30.398Z,12.92
2023-04-01T16:27:56.831Z,12.81
2023-04-01T16:30:23.282Z,12.78
2023-04-01T16:32:49.764Z,12.55
2023-04-01T16:35:16.294Z,12.68
2023-04-01T16:37:42.705Z,12.56
2023-04-01T16:40:09.122Z,12.74
2023-04-01T16:42:36.321Z,12.74
2023-04-01T16:45:02.758Z,12.65
2023-04-01T16:47:29.652Z,12.62
2023-04-01T16:49:56.775Z,12.34
2023-04-01T16:52:23.191Z,12.40
2023-04-01T16:54:50.143Z,12.24
2023-04-01T16:57:17.385Z,12.22
2023-04-01T16:59:43.916Z,12.53
2023-04-01T17:02:10.573Z,12.67
2023-04-01T17:04:37.281Z,12.61
2023-04-01T17:07:03.882Z,12.56
2023-04-01T17:09:30.389Z,12.62
2023-04-01T17:11:56.832Z,12.73
2023-04-01T17:14:23.280Z,12.69
2023-04-01T17:16:49.725Z,12.60
2023-04-01T17:19:16.894Z,12.17
2023-04-01T17:21:43.396Z,12.32
2023-04-01T17:24:09.805Z,12.40
2023-04-01T17:26:36.236Z,12.30
2023-04-01T17:29:02.697Z,12.25
2023-04-01T17:31:29.178Z,12.28
2023-04-01T17:33:55.690Z,12.29
2023-04-01T17:36:22.240Z,12.24
2023-04-01T17:38:48.657Z,12.17
2023-04-01T17:41:15.113Z,12.14
2023-04-01T17:43:41.632Z,12.11
2023-04-01T17:46:08.091Z,12.08
2023-04-01T17:48:35.020Z,12.15
2023-04-01T17:51:01.799Z,12.11
2023-04-01T17:53:28.214Z,12.08
2023-04-01T17:55:54.649Z,12.08
2023-04-01T17:58:22.012Z,12.10
2023-04-01T18:00:54.049Z,12.03
2023-04-01T18:03:21.331Z,11.99
2023-04-01T18:05:47.856Z,12.05
2023-04-01T18:08:14.332Z,11.93
2023-04-01T18:10:40.873Z,11.97
2023-04-01T18:13:09.061Z,11.96
2023-04-01T18:15:35.558Z,11.88
2023-04-01T18:18:02.042Z,11.89
2023-04-01T18:20:30.076Z,11.86
2023-04-01T18:22:56.489Z,11.86
2023-04-01T18:25:23.045Z,11.78
2023-04-01T18:27:49.486Z,11.74
2023-04-01T18:30:16.056Z,11.78
2023-04-01T18:32:42.474Z,11.79
2023-04-01T18:35:08.939Z,11.71
2023-04-01T18:37:35.486Z,11.74
2023-04-01T18:40:01.902Z,11.65
2023-04-01T18:42:28.328Z,11.69
2023-04-01T18:44:54.730Z,11.50
2023-04-01T18:47:21.342Z,11.62
2023-04-01T18:49:47.774Z,11.62
2023-04-01T18:52:14.201Z,11.53
2023-04-01T18:54:40.636Z,11.50
2023-04-01T18:57:07.181Z,11.47
2023-04-01T18:59:33.703Z,11.54
2023-04-01T19:02:00.256Z,11.46
2023-04-01T19:04:27.339Z,11.45
2023-04-01T19:06:53.835Z,11.29
2023-04-01T19:09:20.336Z,11.32
2023-04-01T19:11:50.915Z,11.34
2023-04-01T19:14:17.409Z,11.31
2023-04-01T19:16:45.099Z,11.28
2023-04-01T19:19:12.320Z,11.22
2023-04-01T19:21:38.779Z,11.20
2023-04-01T19:24:05.250Z,11.21
2023-04-01T19:26:31.655Z,11.24
2023-04-01T19:28:58.152Z,11.12
2023-04-01T19:31:24.639Z,11.07
2023-04-01T19:33:51.157Z,11.06
2023-04-01T19:36:17.582Z,10.96
2023-04-01T19:38:44.061Z,11.03
2023-04-01T19:41:10.512Z,11.12
2023-04-01T19:43:36.928Z,10.92
2023-04-01T19:46:03.378Z,11.07
2023-04-01T19:48:29.806Z,11.11
2023-04-01T19:50:56.669Z,11.06
2023-04-01T19:53:23.276Z,11.11
2023-04-01T19:55:49.708Z,11.16
2023-04-01T19:58:16.278Z,11.02
2023-04-01T20:00:42.701Z,10.92
2023-04-01T20:03:09.234Z,10.88
2023-04-01T20:05:35.990Z,10.91
2023-04-01T20:08:02.583Z,10.88
2023-04-01T20:10:28.987Z,10.66
2023-04-01T20:12:56.691Z,10.81
2023-04-01T20:15:23.142Z,10.87
2023-04-01T20:17:49.647Z,10.90
2023-04-01T20:20:16.254Z,10.94
2023-04-01T20:22:42.677Z,10.93
2023-04-01T20:25:09.171Z,10.93
2023-04-01T20:27:35.606Z,10.96
2023-04-01T20:30:02.036Z,10.91
2023-04-01T20:32:28.557Z,11.03
2023-04-01T20:34:55.383Z,11.06
2023-04-01T20:37:21.871Z,11.00
2023-04-01T20:39:48.379Z,10.98
2023-04-01T20:42:14.788Z,11.01
2023-04-01T20:44:41.453Z,11.00
2023-04-01T20:47:08.103Z,11.01
2023-04-01T20:49:34.533Z,11.03
2023-04-01T20:52:00.971Z,11.01
2023-04-01T20:54:27.409Z,10.88
2023-04-01T20:56:55.779Z,10.92
2023-04-01T20:59:25.018Z,10.93
2023-04-01T21:01:51.906Z,10.98
2023-04-01T21:04:18.535Z,10.95
2023-04-01T21:06:44.995Z,11.00
2023-04-01T21:09:11.396Z,10.93
2023-04-01T21:11:38.204Z,10.94
2023-04-01T21:14:04.650Z,10.97
2023-04-01T21:16:31.805Z,10.98
2023-04-01T21:18:59.078Z,10.93
2023-04-01T21:21:25.537Z,10.99
2023-04-01T21:23:52.031Z,11.03
2023-04-01T21:26:18.488Z,11.02
2023-04-01T21:28:44.994Z,11.06
2023-04-01T21:31:11.493Z,10.92
2023-04-01T21:33:37.908Z,10.80
2023-04-01T21:36:04.323Z,10.73
2023-04-01T21:38:30.844Z,10.84
2023-04-01T21:40:57.307Z,10.84
2023-04-01T21:43:23.723Z,10.86
2023-04-01T21:45:50.299Z,10.82
2023-04-01T21:48:16.760Z,10.83
2023-04-01T21:50:43.190Z,10.65
2023-04-01T21:53:09.648Z,10.60
2023-04-01T21:55:36.400Z,10.47
2023-04-01T21:58:03.053Z,10.37
2023-04-01T22:00:29.500Z,10.31
2023-04-01T22:02:56.016Z,10.31
2023-04-01T22:05:22.471Z,10.36
2023-04-01T22:07:48.882Z,10.35
2023-04-01T22:10:15.389Z,10.15
2023-04-01T22:12:41.813Z,10.16
2023-04-01T22:15:08.241Z,9.94
2023-04-01T22:17:34.708Z,10.13
2023-04-01T22:20:10.481Z,10.13
2023-04-01T22:22:37.098Z,10.04
2023-04-01T22:25:03.538Z,9.86
2023-04-01T22:27:29.950Z,9.64
2023-04-01T22:29:56.673Z,9.86
2023-04-01T22:32:23.127Z,9.77
2023-04-01T22:34:49.549Z,9.80
2023-04-01T22:37:16.001Z,9.75
2023-04-01T22:39:42.440Z,9.74
2023-04-01T22:42:08.947Z,9.75
2023-04-01T22:44:35.649Z,9.73
2023-04-01T22:47:02.084Z,9.86
2023-04-01T22:49:29.053Z,9.80
2023-04-01T22:51:55.700Z,9.55
2023-04-01T22:54:22.204Z,9.61
2023-04-01T22:56:48.694Z,9.75
2023-04-01T22:59:15.161Z,9.62
2023-04-01T23:01:42.342Z,9.51
2023-04-01T23:04:09.893Z,9.52
2023-04-01T23:06:36.544Z,9.36
2023-04-01T23:09:03.266Z,9.06
2023-04-01T23:11:29.679Z,9.12
2023-04-01T23:13:56.126Z,8.90
2023-04-01T23:16:22.812Z,9.05
2023-04-01T23:18:49.316Z,8.86
2023-04-01T23:21:15.756Z,8.87
2023-04-01T23:23:42.194Z,8.96
2023-04-01T23:26:08.612Z,8.88
2023-04-01T23:28:35.093Z,8.91
2023-04-01T23:31:01.590Z,8.72
2023-04-01T23:33:28.069Z,8.81
2023-04-01T23:35:54.487Z,8.94
2023-04-01T23:38:21.018Z,9.12
2023-04-01T23:40:47.424Z,8.85
2023-04-01T23:43:13.870Z,8.79
2023-04-01T23:45:40.469Z,8.66
2023-04-01T23:48:06.908Z,8.59
2023-04-01T23:50:33.434Z,8.62
2023-04-01T23:52:59.927Z,8.72
2023-04-01T23:55:26.359Z,8.43
2023-04-01T23:57:52.794Z,8.51
